METAR Data
IDs: Format: Raw Decoded Include TAF

Data at: 1519 UTC 21 Sep 2018

KFUL 211453Z 00000KT 5SM HZ OVC023 20/16 A2997 RMK AO2 SLP148 T02000156 53014
KFUL 211353Z 00000KT 5SM HZ OVC028 18/15 A2995 RMK AO2 SLP142 T01830150
KFUL 211253Z AUTO 00000KT 8SM OVC030 19/15 A2994 RMK AO2 SLP136 T01890150
KFUL 211229Z AUTO 01003KT 8SM FEW011 OVC030 19/15 A2994 RMK AO2 T01890150
KFUL 211153Z AUTO 01003KT 8SM OVC013 19/15 A2993 RMK AO2 SLP134 T01940150 10200 20194 58000
KFUL 211053Z AUTO 36004KT 9SM OVC014 19/15 A2993 RMK AO2 SLP135 T01940150
KFUL 210953Z AUTO 00000KT 9SM OVC014 19/15 A2993 RMK AO2 SLP135 T01940150
KFUL 210939Z AUTO 00000KT 9SM OVC014 19/15 A2993 RMK AO2 T01940150
KFUL 210853Z AUTO VRB03KT 9SM OVC015 20/15 A2993 RMK AO2 SLP135 T02000150 58001
KFUL 210753Z AUTO 18003KT 10SM OVC015 20/15 A2994 RMK AO2 SLP138 T02000150 402720189
KFUL 210653Z AUTO 00000KT 10SM OVC015 19/15 A2994 RMK AO2 SLP136 T01940150
KFUL 210615Z AUTO 18003KT 10SM BKN016 OVC033 20/15 A2994 RMK AO2 T02000150
KFUL 210553Z AUTO 20003KT 9SM SCT015 OVC035 19/15 A2993 RMK AO2 SLP135 T01940150 10244 20194 51018
KFUL 210453Z AUTO 17004KT 10SM FEW015 OVC037 20/16 A2993 RMK AO2 SLP132 T02000156
KFUL 210353Z AUTO 17004KT 10SM OVC040 20/16 A2991 RMK AO2 SLP126 T02000156
KFUL 210253Z 19004KT 10SM OVC039 21/16 A2988 RMK AO2 SLP118 T02060156 53020
KFUL 210153Z 20006KT 10SM OVC036 22/16 A2986 RMK AO2 SLP109 T02170156
KFUL 210053Z 18006KT 10SM OVC035 23/16 A2984 RMK AO2 SLP103 T02280156
KFUL 202353Z COR 19007KT 10SM CLR 24/16 A2982 RMK AO2 SLP098 T02390156 10272 20228 55002
KFUL 202253Z COR 22007KT 10SM CLR 26/16 A2982 RMK AO2 SLP097 T02560156
KFUL 202153Z VRB06KT 10SM OVC036 26/16 A2982 RMK AO2 SLP098 T02610156
KFUL 202053Z 21006KT 10SM OVC038 27/16 A2983 RMK AO2 SLP099 T02670156 58009
KFUL 201953Z VRB05KT 10SM BKN039 OVC048 27/16 A2984 RMK AO2 SLP102 T02670156
KFUL 201853Z 17006KT 10SM FEW048 26/15 A2985 RMK AO2 SLP107 T02560150
KFUL 201753Z 21004KT 9SM CLR 23/15 A2986 RMK AO2 SLP108 T02280150 10233 20189 51011
KFUL 201653Z VRB03KT 8SM FEW018 FEW037 22/14 A2985 RMK AO2 SLP108 T02220144
KFUL 201645Z 00000KT 8SM FEW018 SCT030 22/14 A2985 RMK AO2 T02170144
KFUL 201553Z COR 18003KT 7SM BKN016 21/14 A2984 RMK AO2 SLP104 T02060144
KFUL 201453Z 10004KT 7SM OVC015 20/15 A2982 RMK AO2 SLP098 T02000150 53020
KFUL 201353Z 04003KT 6SM HZ OVC013 19/15 A2980 RMK AO2 SLP090 T01940150
KFUL 201253Z AUTO 00000KT 9SM OVC012 19/15 A2978 RMK AO2 SLP084 T01940150
KFUL 201153Z AUTO 14003KT 8SM OVC010 19/16 A2976 RMK AO2 SLP078 T01890156 10206 20189 53001
KFUL 201138Z AUTO 08004KT 8SM OVC010 19/16 A2977 RMK AO2 T01890156
KFUL 201053Z AUTO 08004KT 9SM OVC008 19/15 A2976 RMK AO2 SLP077 T01890150
KFUL 200953Z AUTO 06003KT 9SM BKN009 19/16 A2976 RMK AO2 SLP077 T01890156
KFUL 200853Z AUTO 14003KT 8SM CLR 19/16 A2976 RMK AO2 SLP075 T01940161 53004
KFUL 200753Z AUTO 00000KT 10SM CLR 19/15 A2975 RMK AO2 SLP073 T01940150 402830156
KFUL 200653Z AUTO 00000KT 10SM CLR 21/15 A2975 RMK AO2 SLP072 T02060150
KFUL 200553Z AUTO 00000KT 10SM CLR 21/15 A2974 RMK AO2 SLP071 T02060150 10278 20206 50012
KFUL 200453Z AUTO 00000KT 10SM CLR 21/15 A2975 RMK AO2 SLP073 T02110150
KFUL 200353Z 00000KT 10SM CLR 21/14 A2974 RMK AO2 SLP069 T02110144